Time;durP1;ratioP1;P1;durP2;ratioP2;P2;SDS_P1;SDS_P2;PMS_P1;PMS_P2;Temp;Humidity;BMP_temperature;BMP_pressure;BME280_temperature;BME280_humidity;BME280_pressure;Samples;Min_cycle;Max_cycle;Signal;HPM_P1;HPM_P2
2023/08/03 00:01:41;;;;;;;4.95;1.55;;;17.00;99.90;;;;;;4987054;28;20045;-76
2023/08/03 00:04:06;;;;;;;4.10;1.20;;;17.00;99.90;;;;;;4989941;28;20041;-77
2023/08/03 00:06:32;;;;;;;3.25;1.20;;;17.10;99.90;;;;;;4991978;28;20038;-76
2023/08/03 00:08:57;;;;;;;4.70;1.20;;;17.00;99.90;;;;;;4985361;28;20053;-75
2023/08/03 00:11:23;;;;;;;3.38;1.27;;;17.00;99.90;;;;;;4958362;28;20049;-76
2023/08/03 00:13:48;;;;;;;3.10;1.55;;;17.00;99.90;;;;;;4985500;28;20415;-76
2023/08/03 00:16:14;;;;;;;4.07;1.33;;;17.00;99.90;;;;;;4973373;28;20045;-76
2023/08/03 00:18:39;;;;;;;4.07;1.40;;;17.00;99.90;;;;;;4973157;28;20121;-76
2023/08/03 00:21:05;;;;;;;3.30;1.60;;;17.00;99.90;;;;;;4962201;28;20151;-76
2023/08/03 00:23:30;;;;;;;3.28;1.38;;;17.00;99.90;;;;;;4988719;28;20448;-76
2023/08/03 00:25:56;;;;;;;3.58;1.15;;;17.10;99.90;;;;;;4984770;28;20184;-75
2023/08/03 00:28:22;;;;;;;3.35;0.90;;;17.10;99.90;;;;;;4978576;28;20513;-75
2023/08/03 00:30:47;;;;;;;5.00;1.00;;;17.10;99.90;;;;;;4995051;28;20046;-76
2023/08/03 00:33:13;;;;;;;3.55;1.23;;;17.10;99.90;;;;;;4989436;28;20041;-76
2023/08/03 00:35:38;;;;;;;3.70;1.58;;;17.10;99.90;;;;;;4991526;28;20456;-76
2023/08/03 00:38:04;;;;;;;4.53;1.40;;;17.10;99.90;;;;;;4991283;28;20034;-76
2023/08/03 00:40:29;;;;;;;4.13;1.10;;;17.10;99.90;;;;;;4991508;28;20125;-76
2023/08/03 00:42:55;;;;;;;3.40;1.15;;;17.10;99.90;;;;;;4995235;28;20037;-76
2023/08/03 00:45:21;;;;;;;2.25;1.02;;;17.10;99.90;;;;;;4994276;28;20501;-76
2023/08/03 00:47:46;;;;;;;3.65;1.15;;;17.20;99.90;;;;;;4990321;28;20038;-76
2023/08/03 00:50:12;;;;;;;2.17;0.93;;;17.10;99.90;;;;;;4994104;28;20501;-76
2023/08/03 00:52:38;;;;;;;2.65;1.00;;;17.10;99.90;;;;;;4989767;28;20085;-76
2023/08/03 00:55:04;;;;;;;1.85;0.98;;;17.10;99.90;;;;;;4990044;28;20038;-76
2023/08/03 00:57:30;;;;;;;4.78;1.23;;;17.10;99.90;;;;;;4991956;28;20120;-76
2023/08/03 00:59:55;;;;;;;2.90;1.00;;;17.00;99.90;;;;;;4989842;28;20063;-76
2023/08/03 01:02:21;;;;;;;3.83;1.10;;;17.00;99.90;;;;;;4992326;28;20061;-76
2023/08/03 01:04:47;;;;;;;2.00;1.05;;;16.90;99.90;;;;;;4988024;28;20042;-76
2023/08/03 01:07:12;;;;;;;1.70;1.00;;;16.90;99.90;;;;;;4981374;28;20527;-76
2023/08/03 01:09:38;;;;;;;5.63;1.20;;;17.00;99.90;;;;;;4992650;28;20112;-76
2023/08/03 01:12:04;;;;;;;4.20;1.10;;;16.90;99.90;;;;;;4985074;28;20030;-76
2023/08/03 01:14:30;;;;;;;3.20;1.10;;;16.90;99.90;;;;;;4974910;28;20034;-76
2023/08/03 01:16:55;;;;;;;2.75;1.20;;;16.90;99.90;;;;;;4974912;28;20042;-76
2023/08/03 01:19:22;;;;;;;2.03;1.05;;;16.90;99.90;;;;;;4980925;28;20420;-76
2023/08/03 01:21:47;;;;;;;2.92;1.30;;;16.90;99.90;;;;;;4986513;28;20046;-76
2023/08/03 01:24:13;;;;;;;3.88;1.40;;;16.90;99.90;;;;;;4976523;28;20126;-77
2023/08/03 01:26:40;;;;;;;2.53;1.30;;;16.90;99.90;;;;;;4975499;28;20042;-77
2023/08/03 01:29:05;;;;;;;4.22;1.20;;;16.90;99.90;;;;;;4968085;28;20038;-77
2023/08/03 01:31:31;;;;;;;3.13;1.27;;;16.90;99.90;;;;;;4970140;28;20046;-78
2023/08/03 01:33:57;;;;;;;3.03;1.38;;;16.90;99.90;;;;;;4957761;28;20050;-78
2023/08/03 01:36:22;;;;;;;4.00;1.27;;;16.90;99.90;;;;;;4988680;28;20038;-78
2023/08/03 01:39:04;;;;;;;3.55;1.40;;;16.90;99.90;;;;;;4994590;28;20050;-78
2023/08/03 01:41:30;;;;;;;2.53;1.42;;;16.80;99.90;;;;;;4976699;28;20062;-78
2023/08/03 01:44:28;;;;;;;2.85;1.40;;;16.80;99.90;;;;;;4976868;28;20604;-78
2023/08/03 01:46:56;;;;;;;3.05;1.30;;;16.80;99.90;;;;;;4973814;28;20054;-78
2023/08/03 01:49:23;;;;;;;5.15;1.35;;;16.80;99.90;;;;;;4976824;28;20069;-78
2023/08/03 01:51:49;;;;;;;2.67;1.40;;;16.80;99.90;;;;;;4976607;28;20552;-78
2023/08/03 01:54:15;;;;;;;2.35;1.38;;;16.80;99.90;;;;;;4976645;28;20121;-78
2023/08/03 01:56:41;;;;;;;4.18;1.20;;;16.80;99.90;;;;;;4976527;28;20162;-77
2023/08/03 01:59:07;;;;;;;2.42;1.10;;;16.80;99.90;;;;;;4976690;28;20057;-77
2023/08/03 02:01:32;;;;;;;3.20;1.20;;;16.80;99.90;;;;;;4976425;28;20046;-78
2023/08/03 02:03:58;;;;;;;2.53;1.23;;;16.80;99.90;;;;;;4976358;28;20517;-78
2023/08/03 02:06:23;;;;;;;2.65;1.20;;;16.80;99.90;;;;;;4960077;28;20397;-77
2023/08/03 02:08:49;;;;;;;3.47;1.30;;;16.80;99.90;;;;;;4976386;28;20038;-77
2023/08/03 02:11:14;;;;;;;3.70;1.40;;;16.80;99.90;;;;;;4976515;28;20461;-77
2023/08/03 02:13:40;;;;;;;2.42;1.00;;;16.80;99.90;;;;;;4976615;28;20038;-77
2023/08/03 02:16:11;;;;;;;2.72;1.10;;;16.80;99.90;;;;;;4976075;28;20049;-77
2023/08/03 02:18:38;;;;;;;2.25;0.88;;;16.80;99.90;;;;;;4975097;28;20071;-77
2023/08/03 02:21:04;;;;;;;2.95;0.98;;;16.80;99.90;;;;;;4975830;28;20053;-77
2023/08/03 02:23:30;;;;;;;10.90;1.80;;;16.80;99.90;;;;;;4979047;28;20030;-77
2023/08/03 02:25:56;;;;;;;2.10;0.80;;;16.80;99.90;;;;;;4983208;28;20477;-77
2023/08/03 02:28:21;;;;;;;1.63;0.90;;;16.80;99.90;;;;;;4977446;28;20034;-77
2023/08/03 02:30:47;;;;;;;3.47;0.90;;;16.80;99.90;;;;;;4974232;28;20047;-77
2023/08/03 02:33:12;;;;;;;2.70;0.70;;;16.80;99.90;;;;;;4967017;28;20049;-78
2023/08/03 02:35:39;;;;;;;3.08;0.90;;;16.80;99.90;;;;;;4979813;28;20133;-78
2023/08/03 02:38:08;;;;;;;1.48;0.70;;;16.80;99.90;;;;;;4971838;28;20506;-77
2023/08/03 02:40:34;;;;;;;2.88;0.90;;;16.30;99.90;;;;;;4974029;28;20042;-78
2023/08/03 02:42:59;;;;;;;5.22;1.05;;;16.70;99.90;;;;;;4950528;28;20045;-78
2023/08/03 02:45:25;;;;;;;1.83;0.98;;;16.70;99.90;;;;;;4982428;28;20057;-78
2023/08/03 02:47:51;;;;;;;3.05;1.58;;;16.70;99.90;;;;;;4975483;28;20066;-78
2023/08/03 02:50:17;;;;;;;2.58;0.90;;;16.70;99.90;;;;;;4975758;28;20038;-78
2023/08/03 02:52:42;;;;;;;3.17;0.88;;;16.80;99.90;;;;;;4974865;28;20046;-78
2023/08/03 02:55:08;;;;;;;2.25;0.90;;;16.80;99.90;;;;;;4975058;28;20414;-78
2023/08/03 02:57:33;;;;;;;3.90;1.45;;;16.80;99.90;;;;;;4975617;28;20105;-78
2023/08/03 02:59:59;;;;;;;1.42;1.02;;;16.80;99.90;;;;;;4975551;28;20498;-78
2023/08/03 03:02:24;;;;;;;4.28;1.15;;;16.80;99.90;;;;;;4975295;28;20046;-78
2023/08/03 03:04:50;;;;;;;4.20;1.17;;;16.80;99.90;;;;;;4975345;28;20045;-78
2023/08/03 03:07:16;;;;;;;2.38;1.10;;;16.80;99.90;;;;;;4975271;28;20046;-78
2023/08/03 03:09:41;;;;;;;3.25;1.10;;;16.70;99.90;;;;;;4975683;28;20080;-78
2023/08/03 03:12:08;;;;;;;2.28;1.35;;;16.80;99.90;;;;;;4975820;28;20042;-79
2023/08/03 03:14:35;;;;;;;2.42;1.20;;;16.70;99.90;;;;;;4994946;28;20045;-78
2023/08/03 03:17:01;;;;;;;6.18;1.42;;;16.70;99.90;;;;;;4982192;28;20038;-78
2023/08/03 03:19:27;;;;;;;1.98;1.25;;;16.80;99.90;;;;;;4975162;28;20046;-78
2023/08/03 03:21:52;;;;;;;3.70;1.48;;;16.70;99.90;;;;;;4975023;28;20126;-78
2023/08/03 03:24:18;;;;;;;3.30;1.50;;;16.70;99.90;;;;;;4975232;28;20133;-78
2023/08/03 03:26:44;;;;;;;3.60;1.45;;;16.70;99.90;;;;;;4974711;28;20042;-78
2023/08/03 03:29:09;;;;;;;3.72;1.70;;;16.70;99.90;;;;;;4958738;28;20042;-77
2023/08/03 03:31:35;;;;;;;2.15;1.70;;;16.80;99.90;;;;;;4959146;28;20042;-78
2023/08/03 03:34:00;;;;;;;4.50;1.73;;;16.70;99.90;;;;;;4974889;28;20042;-78
2023/08/03 03:36:26;;;;;;;3.00;1.60;;;16.70;99.90;;;;;;4974709;28;20046;-78
2023/08/03 03:38:51;;;;;;;6.60;1.80;;;16.70;99.90;;;;;;4975346;28;20046;-78
2023/08/03 03:41:17;;;;;;;4.47;2.22;;;16.70;99.90;;;;;;4974720;28;20544;-78
2023/08/03 03:43:42;;;;;;;2.83;1.90;;;16.80;99.90;;;;;;4974293;28;20413;-78
2023/08/03 03:46:08;;;;;;;2.33;1.63;;;16.80;99.90;;;;;;4948539;28;20034;-78
2023/08/03 03:48:33;;;;;;;2.97;2.13;;;16.80;99.90;;;;;;4973849;28;20068;-77
2023/08/03 03:50:59;;;;;;;4.78;1.90;;;16.80;99.90;;;;;;4970995;28;20034;-78
2023/08/03 03:53:24;;;;;;;3.38;2.00;;;16.80;99.90;;;;;;4971423;28;20046;-78
2023/08/03 03:55:50;;;;;;;4.38;2.17;;;16.70;99.90;;;;;;4973183;28;20046;-78
2023/08/03 03:58:15;;;;;;;4.32;2.20;;;16.80;99.90;;;;;;4973160;28;20046;-78
2023/08/03 04:00:41;;;;;;;5.65;2.75;;;16.80;99.90;;;;;;4984687;28;20038;-77
2023/08/03 04:03:07;;;;;;;5.57;2.90;;;16.80;99.90;;;;;;4969728;28;20033;-77
2023/08/03 04:05:37;;;;;;;4.55;2.53;;;16.70;99.90;;;;;;4977296;28;20043;-77
2023/08/03 04:08:03;;;;;;;3.35;2.92;;;16.70;99.90;;;;;;4968796;28;20073;-78
2023/08/03 04:10:29;;;;;;;7.32;3.03;;;16.70;99.90;;;;;;4967238;28;20748;-77
2023/08/03 04:12:55;;;;;;;9.35;3.55;;;16.70;99.90;;;;;;4971975;28;20402;-78
2023/08/03 04:15:20;;;;;;;9.52;3.80;;;16.60;99.90;;;;;;4967118;28;20042;-78
2023/08/03 04:17:48;;;;;;;5.88;2.80;;;16.60;99.90;;;;;;4985870;28;20508;-77
2023/08/03 04:20:14;;;;;;;7.82;3.45;;;16.60;99.90;;;;;;4972501;28;20077;-77
2023/08/03 04:22:40;;;;;;;7.65;3.38;;;16.60;99.90;;;;;;4966648;28;20039;-77
2023/08/03 04:25:06;;;;;;;8.73;3.70;;;16.60;99.90;;;;;;4972915;28;20040;-78
2023/08/03 04:27:32;;;;;;;8.45;3.50;;;16.60;99.90;;;;;;4962315;28;20057;-78
2023/08/03 04:29:57;;;;;;;5.60;3.70;;;16.60;99.90;;;;;;4987548;28;20042;-77
2023/08/03 04:32:23;;;;;;;6.13;3.65;;;16.60;99.90;;;;;;4967027;28;20045;-77
2023/08/03 04:34:48;;;;;;;7.75;3.42;;;16.60;99.90;;;;;;4971105;28;20042;-78
2023/08/03 04:37:14;;;;;;;5.22;3.25;;;16.60;99.90;;;;;;4970997;28;20049;-77
2023/08/03 04:39:39;;;;;;;6.38;3.42;;;16.60;99.90;;;;;;4972564;28;20077;-77
2023/08/03 04:42:05;;;;;;;6.57;4.07;;;16.70;99.90;;;;;;4971037;28;21761;-77
2023/08/03 04:44:30;;;;;;;6.53;3.30;;;16.80;99.90;;;;;;4970854;28;20513;-77
2023/08/03 04:46:56;;;;;;;8.32;3.67;;;16.80;99.90;;;;;;4965746;28;20508;-77
2023/08/03 04:49:22;;;;;;;4.68;3.03;;;16.80;99.90;;;;;;4970340;28;20030;-77
2023/08/03 04:51:49;;;;;;;7.07;4.10;;;16.90;99.90;;;;;;4964421;28;20462;-77
2023/08/03 04:54:15;;;;;;;7.70;3.25;;;16.90;99.90;;;;;;4969143;28;20039;-77
2023/08/03 04:56:40;;;;;;;8.52;3.65;;;17.00;99.90;;;;;;4955620;28;20391;-77
2023/08/03 04:59:06;;;;;;;5.70;2.95;;;17.00;99.90;;;;;;4984640;28;20459;-77
2023/08/03 05:01:32;;;;;;;6.35;3.17;;;17.00;99.90;;;;;;4992793;28;20040;-77
2023/08/03 05:03:59;;;;;;;7.05;3.00;;;17.00;99.90;;;;;;4980908;28;20085;-77
2023/08/03 05:06:25;;;;;;;6.07;3.30;;;17.00;99.90;;;;;;4988003;28;20122;-77
2023/08/03 05:08:51;;;;;;;5.43;3.28;;;17.00;99.90;;;;;;4983699;28;20117;-77
2023/08/03 05:11:16;;;;;;;14.50;3.88;;;16.90;99.90;;;;;;4988729;28;20719;-77
2023/08/03 05:13:42;;;;;;;5.03;2.38;;;16.90;99.90;;;;;;4988067;28;20050;-77
2023/08/03 05:16:07;;;;;;;6.53;2.40;;;16.80;99.90;;;;;;4980825;28;20120;-77
2023/08/03 05:18:33;;;;;;;4.82;2.22;;;16.80;99.90;;;;;;4992116;28;20044;-77
2023/08/03 05:20:58;;;;;;;5.65;2.25;;;16.80;99.90;;;;;;4989410;28;20056;-77
2023/08/03 05:23:24;;;;;;;8.63;2.72;;;16.70;99.90;;;;;;4995968;28;20416;-77
2023/08/03 05:25:54;;;;;;;6.60;2.40;;;16.60;99.90;;;;;;4992023;28;20154;-77
2023/08/03 05:28:20;;;;;;;6.00;2.45;;;16.70;99.90;;;;;;4992106;28;20037;-77
2023/08/03 05:30:46;;;;;;;5.88;2.08;;;16.70;99.90;;;;;;4986991;28;20133;-77
2023/08/03 05:33:11;;;;;;;6.95;2.55;;;16.70;99.90;;;;;;4989985;28;20470;-77
2023/08/03 05:35:37;;;;;;;7.47;2.85;;;16.70;99.90;;;;;;4988428;28;20034;-77
2023/08/03 05:38:04;;;;;;;6.75;2.95;;;16.70;99.90;;;;;;4986990;28;20058;-77
2023/08/03 05:40:29;;;;;;;9.98;3.55;;;16.70;99.90;;;;;;4982777;28;20048;-77
2023/08/03 05:42:55;;;;;;;7.93;3.45;;;16.70;99.90;;;;;;4988847;28;20038;-77
2023/08/03 05:45:38;;;;;;;8.57;3.80;;;16.70;99.90;;;;;;4979269;28;20112;-77
2023/08/03 05:48:20;;;;;;;7.72;4.25;;;16.70;99.90;;;;;;4987524;28;20504;-77
2023/08/03 05:50:51;;;;;;;8.07;3.70;;;16.70;99.90;;;;;;4991327;28;20050;-77
2023/08/03 05:53:17;;;;;;;8.80;3.80;;;16.70;99.90;;;;;;4982526;28;20096;-77
2023/08/03 05:55:44;;;;;;;8.27;3.90;;;16.70;99.90;;;;;;4988470;28;20092;-77
2023/08/03 05:58:19;;;;;;;8.57;3.60;;;16.70;99.90;;;;;;4969185;28;20038;-77
2023/08/03 06:00:49;;;;;;;8.43;3.75;;;16.70;99.90;;;;;;4980292;28;20525;-77
2023/08/03 06:03:17;;;;;;;6.30;3.75;;;16.70;99.90;;;;;;4975835;28;20048;-77
2023/08/03 06:05:47;;;;;;;7.90;4.07;;;16.80;99.90;;;;;;4990962;28;20034;-77
2023/08/03 06:08:24;;;;;;;9.15;3.92;;;16.80;99.90;;;;;;4989430;28;20040;-77
2023/08/03 06:10:54;;;;;;;12.10;4.63;;;16.90;99.90;;;;;;4987714;28;20105;-77
2023/08/03 06:13:26;;;;;;;8.73;3.92;;;16.80;99.90;;;;;;4991810;28;20520;-77
2023/08/03 06:15:51;;;;;;;7.32;4.28;;;16.80;99.90;;;;;;4988048;28;20049;-77
2023/08/03 06:18:19;;;;;;;7.00;3.88;;;16.90;99.90;;;;;;4971382;28;20049;-77
2023/08/03 06:20:47;;;;;;;8.73;4.20;;;17.00;99.90;;;;;;4987328;28;20523;-77
2023/08/03 06:23:17;;;;;;;7.25;3.80;;;17.00;99.90;;;;;;4991914;28;20038;-77
2023/08/03 06:25:43;;;;;;;7.57;3.58;;;17.00;99.90;;;;;;4994744;28;20096;-77
2023/08/03 06:28:10;;;;;;;5.60;3.60;;;16.90;99.90;;;;;;4994172;28;20037;-77
2023/08/03 06:30:37;;;;;;;7.50;3.53;;;17.00;99.90;;;;;;4984634;28;20504;-77
2023/08/03 06:33:02;;;;;;;6.80;3.50;;;17.00;99.90;;;;;;4974342;28;20077;-78
2023/08/03 06:35:39;;;;;;;5.78;3.25;;;17.00;99.90;;;;;;4974968;28;20066;-77
2023/08/03 06:38:07;;;;;;;5.55;3.40;;;17.20;99.90;;;;;;4967105;28;20053;-78
2023/08/03 06:40:33;;;;;;;4.82;2.90;;;17.20;99.90;;;;;;4970958;28;20035;-77
2023/08/03 06:43:00;;;;;;;5.05;3.00;;;17.20;99.90;;;;;;4973212;28;20042;-77
2023/08/03 06:45:26;;;;;;;5.50;3.13;;;17.30;99.90;;;;;;4971058;28;20449;-77
2023/08/03 06:47:53;;;;;;;4.97;3.00;;;17.30;99.90;;;;;;4973986;28;20126;-77
2023/08/03 06:50:18;;;;;;;3.53;2.55;;;17.30;99.90;;;;;;4977404;28;20038;-77
2023/08/03 06:52:44;;;;;;;5.60;3.20;;;17.40;99.90;;;;;;4975416;28;20046;-79
2023/08/03 06:55:09;;;;;;;4.90;3.17;;;17.40;99.90;;;;;;4982471;28;20046;-77
2023/08/03 06:57:35;;;;;;;3.90;3.25;;;17.50;99.90;;;;;;4988357;28;20084;-77
2023/08/03 07:00:00;;;;;;;4.05;2.85;;;17.50;99.90;;;;;;4984605;28;20101;-78
2023/08/03 07:02:26;;;;;;;4.68;2.90;;;17.70;99.90;;;;;;4993078;28;20046;-79
2023/08/03 07:04:52;;;;;;;3.42;2.42;;;17.80;99.90;;;;;;4991093;28;20034;-77
2023/08/03 07:07:17;;;;;;;6.57;2.30;;;17.70;99.90;;;;;;4975595;28;20410;-78
2023/08/03 07:09:50;;;;;;;3.65;2.40;;;17.60;99.90;;;;;;4965529;28;20117;-77
2023/08/03 07:12:15;;;;;;;2.45;2.00;;;17.70;99.90;;;;;;4987900;28;20041;-78
2023/08/03 07:14:41;;;;;;;2.42;1.73;;;17.70;99.90;;;;;;4976945;28;20501;-78
2023/08/03 07:17:07;;;;;;;3.75;2.22;;;17.90;99.90;;;;;;4990604;28;20134;-77
2023/08/03 07:19:33;;;;;;;2.42;1.90;;;18.10;99.90;;;;;;4984673;28;20544;-80
2023/08/03 07:21:58;;;;;;;3.13;1.80;;;18.20;99.90;;;;;;4973224;28;20468;-80
2023/08/03 07:24:26;;;;;;;4.93;1.60;;;18.00;99.90;;;;;;4977625;28;20057;-78
2023/08/03 07:26:52;;;;;;;4.30;1.90;;;17.90;99.90;;;;;;4989989;28;20449;-79
2023/08/03 07:29:18;;;;;;;3.00;1.73;;;18.10;99.90;;;;;;4975649;28;20042;-78
2023/08/03 07:31:44;;;;;;;5.82;1.95;;;18.20;99.90;;;;;;4990139;28;20046;-78
2023/08/03 07:34:09;;;;;;;3.58;1.80;;;18.30;99.90;;;;;;4970345;28;20502;-79
2023/08/03 07:36:35;;;;;;;3.45;1.90;;;18.30;99.90;;;;;;4977779;28;20088;-77
2023/08/03 07:39:00;;;;;;;2.80;1.40;;;18.30;99.90;;;;;;4976547;28;20587;-78
2023/08/03 07:41:26;;;;;;;2.40;1.38;;;18.50;99.90;;;;;;4972569;28;20038;-79
2023/08/03 07:43:52;;;;;;;3.78;1.30;;;18.60;99.90;;;;;;4974399;28;20226;-78
2023/08/03 07:46:17;;;;;;;3.33;1.00;;;18.70;99.90;;;;;;4966801;28;20121;-77
2023/08/03 07:48:43;;;;;;;2.40;1.10;;;18.90;99.90;;;;;;4970055;28;20497;-77
2023/08/03 07:51:16;;;;;;;4.07;1.20;;;19.10;99.90;;;;;;4965922;28;20049;-78
2023/08/03 07:53:42;;;;;;;2.38;0.90;;;19.30;99.90;;;;;;4969111;28;20057;-78
2023/08/03 07:56:19;;;;;;;2.65;1.10;;;19.40;99.90;;;;;;4969905;28;20118;-78
2023/08/03 07:58:46;;;;;;;4.45;1.20;;;19.50;99.90;;;;;;4954758;28;20039;-78
2023/08/03 08:01:12;;;;;;;4.55;1.20;;;19.60;99.90;;;;;;4972884;28;20413;-77
2023/08/03 08:03:38;;;;;;;4.80;1.05;;;19.80;99.90;;;;;;4967614;28;20041;-77
2023/08/03 08:06:05;;;;;;;4.45;1.23;;;20.00;99.90;;;;;;4963052;28;20571;-79
2023/08/03 08:08:30;;;;;;;3.95;0.85;;;20.20;99.90;;;;;;4972227;28;20042;-78
2023/08/03 08:10:56;;;;;;;3.67;1.10;;;20.10;99.90;;;;;;4957304;28;20034;-78
2023/08/03 08:13:21;;;;;;;3.20;1.30;;;20.00;99.90;;;;;;4971610;28;20034;-78
2023/08/03 08:15:47;;;;;;;2.40;0.90;;;20.10;99.90;;;;;;4973365;28;20394;-77
2023/08/03 08:18:12;;;;;;;4.45;1.10;;;20.10;99.90;;;;;;4971772;28;20046;-78
2023/08/03 08:20:39;;;;;;;4.80;1.17;;;20.30;99.90;;;;;;4969538;28;20802;-78
2023/08/03 08:23:04;;;;;;;5.70;1.20;;;20.50;99.90;;;;;;4975723;28;20038;-78
2023/08/03 08:25:37;;;;;;;3.80;1.00;;;20.60;99.90;;;;;;4960152;28;20045;-78
2023/08/03 08:28:03;;;;;;;2.45;0.80;;;20.30;99.90;;;;;;4972231;28;20654;-78
2023/08/03 08:30:29;;;;;;;4.70;1.08;;;20.10;99.90;;;;;;4975397;28;20116;-78
2023/08/03 08:32:54;;;;;;;5.45;1.00;;;20.10;99.90;;;;;;4972515;28;20046;-78
2023/08/03 08:35:20;;;;;;;4.25;1.00;;;20.10;99.90;;;;;;4964845;28;20043;-78
2023/08/03 08:37:45;;;;;;;3.53;1.13;;;20.10;99.90;;;;;;4953888;28;20184;-79
2023/08/03 08:40:11;;;;;;;4.13;1.00;;;20.30;99.90;;;;;;4977507;28;20022;-78
2023/08/03 08:42:38;;;;;;;4.05;1.00;;;20.30;99.90;;;;;;4973155;28;20070;-79
2023/08/03 08:45:07;;;;;;;6.70;1.10;;;20.60;99.90;;;;;;4969915;28;20042;-78
2023/08/03 08:47:32;;;;;;;2.65;0.85;;;20.60;99.90;;;;;;4970385;28;20058;-79
2023/08/03 08:49:58;;;;;;;3.03;0.80;;;20.60;99.90;;;;;;4987499;28;20652;-79
2023/08/03 08:52:26;;;;;;;4.03;1.13;;;20.50;99.90;;;;;;4986941;28;20038;-79
2023/08/03 08:55:09;;;;;;;3.97;1.05;;;20.70;99.90;;;;;;4987857;28;20042;-79
2023/08/03 08:57:35;;;;;;;6.40;1.05;;;21.10;99.90;;;;;;4983006;28;20894;-78
2023/08/03 09:00:05;;;;;;;4.22;1.00;;;21.40;99.90;;;;;;4975115;28;20041;-79
2023/08/03 09:02:31;;;;;;;2.85;0.85;;;21.40;99.90;;;;;;4980333;28;20100;-79
2023/08/03 09:04:56;;;;;;;4.53;1.15;;;21.30;99.90;;;;;;4961970;28;20034;-78
2023/08/03 09:07:22;;;;;;;5.25;1.52;;;20.80;99.90;;;;;;4971443;28;20457;-79
2023/08/03 09:09:48;;;;;;;3.75;1.50;;;20.60;99.90;;;;;;4977323;28;20502;-79
2023/08/03 09:12:24;;;;;;;4.75;1.67;;;20.50;99.90;;;;;;4980980;28;20035;-79
2023/08/03 09:14:51;;;;;;;5.05;1.27;;;20.50;99.90;;;;;;4962349;28;20121;-79
2023/08/03 09:17:18;;;;;;;3.83;1.27;;;20.60;99.90;;;;;;4984805;28;20038;-79
2023/08/03 09:19:45;;;;;;;5.65;1.40;;;20.60;99.90;;;;;;4986498;28;20046;-78
2023/08/03 09:22:11;;;;;;;4.65;1.08;;;20.50;99.90;;;;;;4985766;28;20046;-79
2023/08/03 09:24:37;;;;;;;5.40;1.30;;;20.50;99.90;;;;;;4981177;28;20053;-80
2023/08/03 09:27:03;;;;;;;5.50;1.50;;;20.20;99.90;;;;;;4973968;28;20038;-80
2023/08/03 09:29:32;;;;;;;3.63;1.75;;;20.00;99.90;;;;;;4973700;28;20120;-78
2023/08/03 09:32:05;;;;;;;9.05;1.55;;;19.70;99.90;;;;;;4977291;28;20054;-78
2023/08/03 09:34:36;;;;;;;4.25;1.42;;;19.60;99.90;;;;;;4975472;28;20508;-78
2023/08/03 09:37:03;;;;;;;8.57;1.60;;;19.40;99.90;;;;;;4976207;28;20047;-78
2023/08/03 09:39:32;;;;;;;5.00;1.50;;;19.50;99.90;;;;;;4977766;28;20085;-78
2023/08/03 09:41:59;;;;;;;8.05;1.70;;;19.70;99.90;;;;;;4977988;28;20047;-79
2023/08/03 09:44:27;;;;;;;6.30;1.50;;;19.90;99.90;;;;;;4977971;28;20510;-79
2023/08/03 09:46:53;;;;;;;6.38;1.80;;;20.10;99.90;;;;;;4977698;28;20090;-79
2023/08/03 09:49:18;;;;;;;8.07;1.63;;;20.40;99.90;;;;;;4978167;28;20513;-79
2023/08/03 09:51:44;;;;;;;4.07;1.60;;;20.70;99.90;;;;;;4977576;28;20042;-78
2023/08/03 09:54:22;;;;;;;12.75;1.70;;;21.00;99.90;;;;;;4978167;28;20053;-78
2023/08/03 09:56:52;;;;;;;8.65;2.00;;;21.30;99.90;;;;;;4978384;28;20090;-79
2023/08/03 09:59:23;;;;;;;5.20;1.70;;;21.50;99.90;;;;;;4979905;28;20050;-80
2023/08/03 10:01:50;;;;;;;5.97;1.67;;;21.50;99.90;;;;;;4979143;28;20133;-79
2023/08/03 10:04:16;;;;;;;6.82;1.70;;;21.40;99.90;;;;;;4974527;28;20050;-79
2023/08/03 10:06:46;;;;;;;7.28;1.50;;;21.30;99.90;;;;;;4961844;28;20045;-79
2023/08/03 10:09:16;;;;;;;4.45;1.33;;;21.30;99.90;;;;;;4977666;28;20050;-79
2023/08/03 10:11:46;;;;;;;4.70;1.65;;;21.40;99.90;;;;;;4994900;28;20070;-79
2023/08/03 10:14:15;;;;;;;3.15;0.90;;;21.40;99.90;;;;;;4975300;28;20041;-78
2023/08/03 10:16:42;;;;;;;5.22;1.50;;;21.50;99.90;;;;;;4976681;28;20041;-79
2023/08/03 10:19:08;;;;;;;5.53;1.60;;;21.80;99.90;;;;;;4981349;28;21253;-79
2023/08/03 10:21:35;;;;;;;7.75;1.40;;;21.80;99.90;;;;;;4974090;28;20065;-78
2023/08/03 10:24:12;;;;;;;6.13;1.38;;;22.10;99.90;;;;;;4964351;28;20215;-79
2023/08/03 10:26:38;;;;;;;4.20;1.20;;;22.40;99.90;;;;;;4981430;28;20105;-79
2023/08/03 10:29:04;;;;;;;4.50;1.30;;;22.50;99.90;;;;;;4975982;28;20387;-79
2023/08/03 10:31:30;;;;;;;8.25;1.70;;;22.50;99.90;;;;;;4982692;28;20065;-80
2023/08/03 10:33:55;;;;;;;5.57;1.25;;;22.70;99.90;;;;;;4970968;28;20053;-77
2023/08/03 10:36:27;;;;;;;7.07;1.30;;;23.00;99.90;;;;;;4996071;28;20080;-78
2023/08/03 10:38:56;;;;;;;4.93;1.50;;;23.20;99.90;;;;;;4986586;28;20057;-76
2023/08/03 10:41:27;;;;;;;5.30;1.40;;;23.10;99.90;;;;;;4990471;28;20265;-77
2023/08/03 10:44:13;;;;;;;6.55;1.35;;;23.00;99.90;;;;;;4989387;28;20169;-77
2023/08/03 10:46:53;;;;;;;6.13;1.55;;;22.60;99.90;;;;;;4974566;28;20062;-80
2023/08/03 10:49:19;;;;;;;4.35;1.30;;;22.50;99.90;;;;;;4972700;28;20522;-79
2023/08/03 10:52:03;;;;;;;6.00;1.42;;;22.10;99.90;;;;;;4984855;28;20046;-78
2023/08/03 10:54:30;;;;;;;4.57;1.45;;;21.50;99.90;;;;;;4991721;28;20053;-80
2023/08/03 10:57:04;;;;;;;6.22;1.80;;;21.10;99.90;;;;;;4977867;28;20041;-78
2023/08/03 10:59:35;;;;;;;6.18;1.42;;;20.80;99.90;;;;;;4977726;28;20045;-78
2023/08/03 11:02:21;;;;;;;6.20;1.40;;;20.70;99.90;;;;;;4968841;28;20374;-80
2023/08/03 11:04:52;;;;;;;4.03;1.30;;;21.10;99.90;;;;;;4956025;28;20085;-80
2023/08/03 11:07:32;;;;;;;3.15;0.85;;;21.40;99.90;;;;;;4964432;28;20492;-80
2023/08/03 11:09:59;;;;;;;3.30;0.93;;;21.10;99.90;;;;;;4982168;28;20702;-78
2023/08/03 11:12:27;;;;;;;2.75;0.90;;;21.10;99.90;;;;;;4985929;28;20030;-79
2023/08/03 11:14:54;;;;;;;6.00;1.35;;;21.20;99.90;;;;;;4957578;28;20052;-80
2023/08/03 11:17:30;;;;;;;5.70;1.38;;;21.40;99.90;;;;;;4979994;28;20042;-79
2023/08/03 11:19:58;;;;;;;3.80;1.00;;;21.50;99.90;;;;;;4979666;28;20049;-80
2023/08/03 11:22:24;;;;;;;3.40;1.00;;;21.30;99.90;;;;;;4981168;28;20042;-80
2023/08/03 11:24:59;;;;;;;5.28;1.00;;;21.40;99.90;;;;;;4974088;28;20034;-80
2023/08/03 11:27:25;;;;;;;3.30;0.90;;;21.70;99.90;;;;;;4963998;28;20038;-80
2023/08/03 11:29:52;;;;;;;3.95;0.90;;;22.10;99.90;;;;;;4960928;28;20038;-79
2023/08/03 11:32:24;;;;;;;4.25;1.08;;;21.80;99.90;;;;;;4996266;28;20033;-80
2023/08/03 11:34:55;;;;;;;4.35;1.00;;;21.90;99.90;;;;;;4999850;28;20133;-80
2023/08/03 11:37:21;;;;;;;2.95;0.77;;;21.60;99.90;;;;;;4952419;28;20401;-80
2023/08/03 11:39:46;;;;;;;3.63;1.13;;;21.80;99.90;;;;;;4976238;28;20042;-81
2023/08/03 11:42:12;;;;;;;3.72;1.00;;;22.00;99.90;;;;;;4973367;28;20042;-79
2023/08/03 11:44:39;;;;;;;4.82;1.10;;;22.20;99.90;;;;;;4976529;28;20724;-82
2023/08/03 11:47:07;;;;;;;8.48;1.15;;;22.40;99.90;;;;;;4984219;28;20486;-80
2023/08/03 11:49:32;;;;;;;3.45;0.75;;;22.40;99.90;;;;;;4974822;28;20445;-78
2023/08/03 11:52:01;;;;;;;2.85;0.80;;;22.30;99.90;;;;;;4981086;28;20047;-80
2023/08/03 11:54:29;;;;;;;2.78;0.93;;;22.20;99.90;;;;;;4978004;28;20046;-79
2023/08/03 11:59:46;;;;;;;2.50;1.00;;;22.50;99.90;;;;;;4980351;28;20050;-80
2023/08/03 12:02:11;;;;;;;4.20;0.77;;;22.70;99.90;;;;;;4972037;28;20061;-82
2023/08/03 12:04:37;;;;;;;3.17;0.82;;;23.00;99.90;;;;;;4976277;28;20465;-82
2023/08/03 12:07:04;;;;;;;2.72;0.82;;;23.00;99.90;;;;;;4973396;28;20399;-81
2023/08/03 12:09:39;;;;;;;2.72;0.80;;;23.00;99.90;;;;;;4983548;28;20097;-79
2023/08/03 12:12:10;;;;;;;2.60;1.00;;;23.00;99.90;;;;;;4978871;28;20039;-80
2023/08/03 12:14:36;;;;;;;2.58;1.00;;;23.10;99.90;;;;;;4976551;28;20459;-79
2023/08/03 12:17:02;;;;;;;3.38;1.20;;;23.00;99.90;;;;;;4976482;28;20106;-80
2023/08/03 12:19:32;;;;;;;2.83;1.27;;;23.10;99.90;;;;;;4980697;28;20060;-80
2023/08/03 12:21:59;;;;;;;2.65;1.13;;;23.40;99.90;;;;;;4970549;28;20137;-80
2023/08/03 12:24:25;;;;;;;3.97;1.40;;;23.50;99.90;;;;;;4987308;28;20490;-79
2023/08/03 12:26:50;;;;;;;4.45;1.13;;;23.00;99.90;;;;;;4977154;28;20093;-79
2023/08/03 12:29:16;;;;;;;5.13;1.50;;;22.40;99.90;;;;;;4976556;28;20042;-78
2023/08/03 12:31:41;;;;;;;6.18;1.90;;;22.20;99.90;;;;;;4982183;28;20050;-81
2023/08/03 12:34:07;;;;;;;5.90;1.77;;;22.30;99.90;;;;;;4979843;28;20084;-79
2023/08/03 12:36:34;;;;;;;6.80;1.50;;;22.10;99.90;;;;;;4975000;28;20065;-78
2023/08/03 12:38:59;;;;;;;6.10;1.92;;;21.80;99.90;;;;;;4979499;28;20092;-80
2023/08/03 12:41:25;;;;;;;7.55;1.65;;;21.70;99.90;;;;;;4977318;28;20034;-78
2023/08/03 12:43:50;;;;;;;4.95;1.20;;;21.50;99.90;;;;;;4978956;28;20038;-80
2023/08/03 12:46:16;;;;;;;6.68;1.20;;;21.40;99.90;;;;;;4965696;28;20494;-80
2023/08/03 12:48:42;;;;;;;4.38;1.20;;;21.40;99.90;;;;;;4978047;28;20120;-80